createdAt,value
2019-06-27T00:00:56.965Z,1000.79
2019-06-27T00:01:56.869Z,1000.80
2019-06-27T00:02:56.793Z,1000.86
2019-06-27T00:03:56.699Z,1000.87
2019-06-27T00:04:56.656Z,1000.89
2019-06-27T00:05:56.531Z,1000.93
2019-06-27T00:06:56.447Z,1000.96
2019-06-27T00:07:56.369Z,1000.92
2019-06-27T00:08:56.283Z,1000.86
2019-06-27T00:09:56.201Z,1000.91
2019-06-27T00:10:56.111Z,1000.90
2019-06-27T00:11:56.029Z,1000.90
2019-06-27T00:12:55.943Z,1000.95
2019-06-27T00:13:55.859Z,1000.89
2019-06-27T00:14:55.771Z,1000.91
2019-06-27T00:15:55.683Z,1000.88
2019-06-27T00:16:55.621Z,1000.91
2019-06-27T00:17:55.523Z,1000.91
2019-06-27T00:18:55.439Z,1000.90
2019-06-27T00:19:55.363Z,1000.84
2019-06-27T00:20:55.273Z,1000.79
2019-06-27T00:21:55.183Z,1000.84
2019-06-27T00:22:55.095Z,1000.91
2019-06-27T00:23:55.001Z,1000.86
2019-06-27T00:24:54.947Z,1000.83
2019-06-27T00:25:54.832Z,1000.87
2019-06-27T00:26:57.411Z,1000.87
2019-06-27T00:27:54.667Z,1000.86
2019-06-27T00:28:54.594Z,1000.84
2019-06-27T00:29:54.497Z,1000.82
2019-06-27T00:30:54.418Z,1000.82
2019-06-27T00:31:54.329Z,1000.83
2019-06-27T00:32:54.243Z,1000.86
2019-06-27T00:33:54.155Z,1000.76
2019-06-27T00:34:54.070Z,1000.82
2019-06-27T00:35:53.990Z,1000.78
2019-06-27T00:36:53.893Z,1000.79
2019-06-27T00:37:53.813Z,1000.80
2019-06-27T00:38:53.746Z,1000.80
2019-06-27T00:39:53.640Z,1000.77
2019-06-27T00:40:53.554Z,1000.81
2019-06-27T00:41:53.470Z,1000.77
2019-06-27T00:42:53.419Z,1000.80
2019-06-27T00:43:53.302Z,1000.83
2019-06-27T00:44:53.232Z,1000.83
2019-06-27T00:45:53.133Z,1000.77
2019-06-27T00:46:53.070Z,1000.79
2019-06-27T00:47:52.958Z,1000.84
2019-06-27T00:48:52.894Z,1000.83
2019-06-27T00:49:52.794Z,1000.78
2019-06-27T00:50:52.701Z,1000.77
2019-06-27T00:51:52.636Z,1000.76
2019-06-27T00:52:52.586Z,1000.78
2019-06-27T00:53:52.453Z,1000.83
2019-06-27T00:54:52.366Z,1000.82
2019-06-27T00:55:52.288Z,1000.85
2019-06-27T00:56:52.188Z,1000.79
2019-06-27T00:57:52.114Z,1000.77
2019-06-27T00:58:52.016Z,1000.79
2019-06-27T00:59:51.940Z,1000.80
2019-06-27T01:00:51.873Z,1000.77
2019-06-27T01:01:51.766Z,1000.74
2019-06-27T01:02:51.674Z,1000.79
2019-06-27T01:03:51.606Z,1000.79
2019-06-27T01:04:51.510Z,1000.81
2019-06-27T01:05:51.431Z,1000.80
2019-06-27T01:06:51.334Z,1000.80
2019-06-27T01:07:51.258Z,1000.83
2019-06-27T01:08:51.175Z,1000.82
2019-06-27T01:09:51.095Z,1000.87
2019-06-27T01:10:51.003Z,1000.83
2019-06-27T01:11:50.922Z,1000.81
2019-06-27T01:12:50.837Z,1000.77
2019-06-27T01:13:50.747Z,1000.84
2019-06-27T01:14:50.660Z,1000.83
2019-06-27T01:15:50.572Z,1000.87
2019-06-27T01:16:50.489Z,1000.87
2019-06-27T01:17:50.417Z,1000.90
2019-06-27T01:18:50.347Z,1000.88
2019-06-27T01:19:50.244Z,1000.87
2019-06-27T01:20:50.146Z,1000.85
2019-06-27T01:21:50.051Z,1000.86
2019-06-27T01:22:49.975Z,1000.85
2019-06-27T01:23:49.888Z,1000.87
2019-06-27T01:24:49.804Z,1000.85
2019-06-27T01:25:49.720Z,1000.85
2019-06-27T01:26:49.635Z,1000.86
2019-06-27T01:27:49.553Z,1000.84
2019-06-27T01:28:49.465Z,1000.82
2019-06-27T01:29:49.382Z,1000.81
2019-06-27T01:30:49.334Z,1000.84
2019-06-27T01:31:49.203Z,1000.88
2019-06-27T01:32:49.141Z,1000.83
2019-06-27T01:33:49.034Z,1000.91
2019-06-27T01:34:48.953Z,1000.95
2019-06-27T01:35:48.862Z,1000.94
2019-06-27T01:36:48.784Z,1000.89
2019-06-27T01:37:48.704Z,1000.93
2019-06-27T01:38:48.611Z,1000.93
2019-06-27T01:39:48.538Z,1000.95
2019-06-27T01:40:48.448Z,1001.00
2019-06-27T01:41:48.354Z,1000.95
2019-06-27T01:42:48.277Z,1001.00
2019-06-27T01:43:48.187Z,1000.98
2019-06-27T01:44:48.096Z,1000.99
2019-06-27T01:45:48.008Z,1001.02
2019-06-27T01:46:47.919Z,1001.02
2019-06-27T01:47:47.831Z,1000.98
2019-06-27T01:48:47.756Z,1000.99
2019-06-27T01:49:47.703Z,1000.98
2019-06-27T01:50:47.579Z,1001.00
2019-06-27T01:51:47.492Z,1000.97
2019-06-27T01:52:47.415Z,1000.99
2019-06-27T01:53:47.341Z,1001.01
2019-06-27T01:54:47.241Z,1001.00
2019-06-27T01:55:47.152Z,1001.03
2019-06-27T01:56:47.085Z,1001.01
2019-06-27T01:57:47.464Z,1001.05
2019-06-27T01:58:46.906Z,1001.07
2019-06-27T01:59:46.816Z,1001.02
2019-06-27T02:00:46.767Z,1001.03
2019-06-27T02:01:46.651Z,1001.04
2019-06-27T02:02:46.596Z,1001.02
2019-06-27T02:03:46.465Z,1001.06
2019-06-27T02:04:46.387Z,1001.10
2019-06-27T02:05:46.296Z,1001.03
2019-06-27T02:06:46.218Z,1001.06
2019-06-27T02:07:46.132Z,1001.04
2019-06-27T02:08:46.090Z,1001.07
2019-06-27T02:09:45.976Z,1001.11
2019-06-27T02:10:45.873Z,1001.04
2019-06-27T02:11:45.804Z,1001.09
2019-06-27T02:12:45.707Z,1001.11
2019-06-27T02:13:45.612Z,1001.07
2019-06-27T02:14:45.526Z,1001.02
2019-06-27T02:15:45.444Z,1001.02
2019-06-27T02:16:45.366Z,1001.07
2019-06-27T02:17:45.288Z,1001.07
2019-06-27T02:18:45.184Z,1001.08
2019-06-27T02:19:45.100Z,1001.14
2019-06-27T02:20:45.014Z,1001.09
2019-06-27T02:21:44.933Z,1001.12
2019-06-27T02:22:44.838Z,1001.10
2019-06-27T02:23:44.762Z,1001.20
2019-06-27T02:24:44.668Z,1001.13
2019-06-27T02:25:44.580Z,1001.17
2019-06-27T02:26:44.504Z,1001.14
2019-06-27T02:27:44.426Z,1001.15
2019-06-27T02:28:44.330Z,1001.14
2019-06-27T02:29:44.240Z,1001.17
2019-06-27T02:30:44.242Z,1001.17
2019-06-27T02:31:44.076Z,1001.13
2019-06-27T02:32:43.979Z,1001.17
2019-06-27T02:33:43.916Z,1001.18
2019-06-27T02:34:43.833Z,1001.18
2019-06-27T02:35:43.732Z,1001.17
2019-06-27T02:36:43.686Z,1001.18
2019-06-27T02:37:43.570Z,1001.18
2019-06-27T02:38:43.475Z,1001.22
2019-06-27T02:39:43.388Z,1001.18
2019-06-27T02:40:43.307Z,1001.15
2019-06-27T02:41:43.212Z,1001.15
2019-06-27T02:42:43.129Z,1001.17
2019-06-27T02:43:43.041Z,1001.22
2019-06-27T02:44:42.966Z,1001.23
2019-06-27T02:45:42.878Z,1001.20
2019-06-27T02:46:42.790Z,1001.23
2019-06-27T02:47:42.775Z,1001.21
2019-06-27T02:48:42.632Z,1001.21
2019-06-27T02:49:42.533Z,1001.19
2019-06-27T02:50:42.442Z,1001.23
2019-06-27T02:51:42.373Z,1001.23
2019-06-27T02:52:42.302Z,1001.24
2019-06-27T02:53:42.191Z,1001.19
2019-06-27T02:54:42.136Z,1001.20
2019-06-27T02:55:42.014Z,1001.19
2019-06-27T02:56:41.937Z,1001.19
2019-06-27T02:57:41.850Z,1001.22
2019-06-27T02:58:41.761Z,1001.22
2019-06-27T02:59:41.746Z,1001.26
2019-06-27T03:00:41.592Z,1001.28
2019-06-27T03:01:41.503Z,1001.30
2019-06-27T03:02:41.410Z,1001.30
2019-06-27T03:03:41.325Z,1001.31
2019-06-27T03:04:41.246Z,1001.31
2019-06-27T03:05:41.149Z,1001.29
2019-06-27T03:06:41.075Z,1001.21
2019-06-27T03:07:41.002Z,1001.22
2019-06-27T03:08:40.897Z,1001.24
2019-06-27T03:09:40.833Z,1001.21
2019-06-27T03:10:40.734Z,1001.21
2019-06-27T03:11:40.642Z,1001.23
2019-06-27T03:12:40.595Z,1001.22
2019-06-27T03:13:40.485Z,1001.22
2019-06-27T03:14:40.414Z,1001.24
2019-06-27T03:15:40.308Z,1001.25
2019-06-27T03:16:40.214Z,1001.26
2019-06-27T03:17:40.164Z,1001.27
2019-06-27T03:18:40.045Z,1001.25
2019-06-27T03:19:39.950Z,1001.21
2019-06-27T03:20:39.878Z,1001.25
2019-06-27T03:21:39.830Z,1001.32
2019-06-27T03:22:39.718Z,1001.33
2019-06-27T03:23:39.611Z,1001.28
2019-06-27T03:24:39.537Z,1001.26
2019-06-27T03:25:39.451Z,1001.24
2019-06-27T03:26:39.374Z,1001.22
2019-06-27T03:27:39.272Z,1001.27
2019-06-27T03:28:52.188Z,1001.25
2019-06-27T03:29:39.096Z,1001.22
2019-06-27T03:30:39.028Z,1001.22
2019-06-27T03:31:38.929Z,1001.21
2019-06-27T03:32:38.866Z,1001.16
2019-06-27T03:33:38.789Z,1001.21
2019-06-27T03:34:38.676Z,1001.19
2019-06-27T03:35:38.594Z,1001.19
2019-06-27T03:36:38.510Z,1001.22
2019-06-27T03:37:38.414Z,1001.16
2019-06-27T03:38:38.328Z,1001.17
2019-06-27T03:39:38.273Z,1001.13
2019-06-27T03:40:38.156Z,1001.15
2019-06-27T03:41:38.063Z,1001.17
2019-06-27T03:42:37.989Z,1001.12
2019-06-27T03:43:37.893Z,1001.17
2019-06-27T03:44:37.819Z,1001.21
2019-06-27T03:45:37.760Z,1001.20
2019-06-27T03:46:37.666Z,1001.16
2019-06-27T03:47:37.577Z,1001.16
2019-06-27T03:48:37.496Z,1001.23
2019-06-27T03:49:37.413Z,1001.21
2019-06-27T03:50:37.308Z,1001.24
2019-06-27T03:51:37.225Z,1001.19
2019-06-27T03:52:37.121Z,1001.17
2019-06-27T03:53:37.044Z,1001.16
2019-06-27T03:54:36.952Z,1001.19
2019-06-27T03:55:36.886Z,1001.22
2019-06-27T03:56:36.781Z,1001.20
2019-06-27T03:57:36.697Z,1001.23
2019-06-27T03:58:36.615Z,1001.21
2019-06-27T03:59:36.531Z,1001.21
2019-06-27T04:00:36.426Z,1001.23
2019-06-27T04:01:36.349Z,1001.24
2019-06-27T04:02:36.284Z,1001.25
2019-06-27T04:03:36.191Z,1001.31
2019-06-27T04:04:36.103Z,1001.26
2019-06-27T04:05:36.018Z,1001.28
2019-06-27T04:06:35.927Z,1001.27
2019-06-27T04:07:35.855Z,1001.30
2019-06-27T04:08:35.747Z,1001.29
2019-06-27T04:09:35.657Z,1001.26
2019-06-27T04:10:35.573Z,1001.24
2019-06-27T04:11:35.487Z,1001.21
2019-06-27T04:12:35.406Z,1001.27
2019-06-27T04:13:35.340Z,1001.28
2019-06-27T04:14:35.236Z,1001.24
2019-06-27T04:15:35.161Z,1001.23
2019-06-27T04:16:35.059Z,1001.20
2019-06-27T04:17:34.983Z,1001.17
2019-06-27T04:18:34.892Z,1001.22
2019-06-27T04:19:34.813Z,1001.19
2019-06-27T04:20:34.718Z,1001.18
2019-06-27T04:21:34.645Z,1001.20
2019-06-27T04:22:34.551Z,1001.27
2019-06-27T04:23:34.475Z,1001.24
2019-06-27T04:24:34.389Z,1001.25
2019-06-27T04:25:34.280Z,1001.24
2019-06-27T04:26:34.210Z,1001.27
2019-06-27T04:27:34.120Z,1001.24
2019-06-27T04:28:34.040Z,1001.25
2019-06-27T04:29:34.866Z,1001.26
2019-06-27T04:30:33.851Z,1001.28
2019-06-27T04:31:33.787Z,1001.28
2019-06-27T04:32:33.728Z,1001.33
2019-06-27T04:33:33.615Z,1001.34
2019-06-27T04:34:33.528Z,1001.34
2019-06-27T04:35:33.490Z,1001.33
2019-06-27T04:36:33.357Z,1001.37
2019-06-27T04:37:33.254Z,1001.40
2019-06-27T04:38:33.168Z,1001.41
2019-06-27T04:39:33.086Z,1001.44
2019-06-27T04:40:33.003Z,1001.41
2019-06-27T04:41:32.911Z,1001.48
2019-06-27T04:42:32.821Z,1001.44
2019-06-27T04:43:32.765Z,1001.41
2019-06-27T04:44:32.665Z,1001.46
2019-06-27T04:45:32.561Z,1001.43
2019-06-27T04:46:32.485Z,1001.45
2019-06-27T04:47:32.395Z,1001.49
2019-06-27T04:48:32.311Z,1001.54
2019-06-27T04:49:32.228Z,1001.50
2019-06-27T04:50:32.137Z,1001.54
2019-06-27T04:51:32.065Z,1001.53
2019-06-27T04:52:31.960Z,1001.51
2019-06-27T04:53:31.877Z,1001.55
2019-06-27T04:54:31.797Z,1001.53
2019-06-27T04:55:31.713Z,1001.53
2019-06-27T04:56:31.613Z,1001.50
2019-06-27T04:57:31.535Z,1001.56
2019-06-27T04:58:31.440Z,1001.58
2019-06-27T04:59:31.361Z,1001.57
2019-06-27T05:00:31.265Z,1001.56
2019-06-27T05:01:31.187Z,1001.56
2019-06-27T05:02:31.202Z,1001.57
2019-06-27T05:03:31.040Z,1001.59
2019-06-27T05:04:30.934Z,1001.60
2019-06-27T05:05:30.850Z,1001.64
2019-06-27T05:06:30.760Z,1001.61
2019-06-27T05:07:30.672Z,1001.62
2019-06-27T05:08:30.589Z,1001.54
2019-06-27T05:09:30.496Z,1001.57
2019-06-27T05:10:30.409Z,1001.56
2019-06-27T05:11:30.322Z,1001.56
2019-06-27T05:12:30.269Z,1001.62
2019-06-27T05:13:30.163Z,1001.60
2019-06-27T05:14:32.517Z,1001.59
2019-06-27T05:15:30.009Z,1001.63
2019-06-27T05:16:29.890Z,1001.65
2019-06-27T05:17:29.804Z,1001.70
2019-06-27T05:18:29.725Z,1001.62
2019-06-27T05:19:29.640Z,1001.68
2019-06-27T05:20:29.552Z,1001.64
2019-06-27T05:21:29.461Z,1001.68
2019-06-27T05:22:29.392Z,1001.66
2019-06-27T05:23:29.313Z,1001.70
2019-06-27T05:24:29.204Z,1001.71
2019-06-27T05:25:29.807Z,1001.65
2019-06-27T05:26:29.040Z,1001.64
2019-06-27T05:27:28.960Z,1001.69
2019-06-27T05:28:28.874Z,1001.66
2019-06-27T05:29:28.776Z,1001.69
2019-06-27T05:30:28.688Z,1001.66
2019-06-27T05:31:28.601Z,1001.63
2019-06-27T05:32:28.531Z,1001.64
2019-06-27T05:33:28.439Z,1001.61
2019-06-27T05:34:28.352Z,1001.68
2019-06-27T05:35:28.260Z,1001.64
2019-06-27T05:36:28.187Z,1001.62
2019-06-27T05:37:28.096Z,1001.65
2019-06-27T05:38:27.999Z,1001.63
2019-06-27T05:39:27.911Z,1001.67
2019-06-27T05:40:27.833Z,1001.63
2019-06-27T05:41:27.733Z,1001.59
2019-06-27T05:42:27.658Z,1001.63
2019-06-27T05:43:27.563Z,1001.62
2019-06-27T05:44:27.482Z,1001.73
2019-06-27T05:45:27.430Z,1001.67
2019-06-27T05:46:27.305Z,1001.71
2019-06-27T05:47:27.260Z,1001.71
2019-06-27T05:48:27.140Z,1001.73
2019-06-27T05:49:27.040Z,1001.64
2019-06-27T05:50:27.022Z,1001.71
2019-06-27T05:51:26.875Z,1001.73
2019-06-27T05:52:26.808Z,1001.67
2019-06-27T05:53:26.700Z,1001.70
2019-06-27T05:54:26.623Z,1001.72
2019-06-27T05:55:26.534Z,1001.74
2019-06-27T05:56:26.456Z,1001.76
2019-06-27T05:57:26.356Z,1001.72
2019-06-27T05:58:26.269Z,1001.73
2019-06-27T05:59:26.187Z,1001.71
2019-06-27T06:00:28.931Z,1001.73
2019-06-27T06:01:26.023Z,1001.73
2019-06-27T06:02:25.926Z,1001.73
2019-06-27T06:03:25.841Z,1001.75
2019-06-27T06:04:25.755Z,1001.72
2019-06-27T06:05:25.675Z,1001.75
2019-06-27T06:06:25.579Z,1001.75
2019-06-27T06:07:25.509Z,1001.76
2019-06-27T06:08:25.413Z,1001.73
2019-06-27T06:09:25.326Z,1001.71
2019-06-27T06:10:25.249Z,1001.77
2019-06-27T06:11:25.151Z,1001.77
2019-06-27T06:12:25.120Z,1001.77
2019-06-27T06:13:24.985Z,1001.80
2019-06-27T06:14:24.891Z,1001.79
2019-06-27T06:15:24.809Z,1001.88
2019-06-27T06:16:24.721Z,1001.81
2019-06-27T06:17:24.654Z,1001.85
2019-06-27T06:18:24.546Z,1001.87
2019-06-27T06:19:24.486Z,1001.84
2019-06-27T06:20:24.380Z,1001.85
2019-06-27T06:21:24.314Z,1001.83
2019-06-27T06:22:24.206Z,1001.90
2019-06-27T06:23:24.115Z,1001.86
2019-06-27T06:24:24.035Z,1001.89
2019-06-27T06:25:23.952Z,1001.86
2019-06-27T06:26:23.877Z,1001.93
2019-06-27T06:27:23.787Z,1001.90
2019-06-27T06:28:23.689Z,1001.91
2019-06-27T06:29:23.598Z,1001.95
2019-06-27T06:30:23.520Z,1001.96
2019-06-27T06:31:23.477Z,1001.92
2019-06-27T06:32:23.335Z,1001.96
2019-06-27T06:33:23.264Z,1001.92
2019-06-27T06:34:23.199Z,1001.91
2019-06-27T06:35:23.093Z,1001.95
2019-06-27T06:36:23.012Z,1001.88
2019-06-27T06:37:22.952Z,1001.94
2019-06-27T06:38:22.847Z,1001.93
2019-06-27T06:39:22.733Z,1001.89
2019-06-27T06:40:22.653Z,1001.99
2019-06-27T06:41:22.563Z,1001.89
2019-06-27T06:42:22.502Z,1001.96
2019-06-27T06:43:22.411Z,1001.94
2019-06-27T06:44:22.323Z,1001.99
2019-06-27T06:45:22.218Z,1001.95
2019-06-27T06:46:22.138Z,1001.90
2019-06-27T06:47:22.043Z,1001.92
2019-06-27T06:48:21.963Z,1001.94
2019-06-27T06:49:21.892Z,1001.97
2019-06-27T06:50:23.515Z,1002.05
2019-06-27T06:51:21.713Z,1001.98
2019-06-27T06:52:21.618Z,1001.97
2019-06-27T06:53:21.535Z,1001.96
2019-06-27T06:54:21.441Z,1001.93
2019-06-27T06:55:21.368Z,1001.94
2019-06-27T06:56:21.283Z,1001.96
2019-06-27T06:57:21.201Z,1001.95
2019-06-27T06:58:21.116Z,1002.02
2019-06-27T06:59:21.082Z,1002.03
2019-06-27T07:00:20.946Z,1002.02
2019-06-27T07:01:20.839Z,1002.01
2019-06-27T07:02:20.759Z,1002.08
2019-06-27T07:03:20.687Z,1002.04
2019-06-27T07:04:20.601Z,1002.03
2019-06-27T07:05:20.495Z,1002.08
2019-06-27T07:06:20.410Z,1002.08
2019-06-27T07:07:20.332Z,1002.09
2019-06-27T07:08:20.261Z,1002.02
2019-06-27T07:09:20.172Z,1002.06
2019-06-27T07:10:20.088Z,1002.10
2019-06-27T07:11:19.997Z,1002.08
2019-06-27T07:12:19.900Z,1002.08
2019-06-27T07:13:19.822Z,1002.12
2019-06-27T07:14:19.724Z,1002.07
2019-06-27T07:15:19.650Z,1002.14
2019-06-27T07:16:19.547Z,1002.15
2019-06-27T07:17:19.470Z,1002.10
2019-06-27T07:18:19.387Z,1002.14
2019-06-27T07:19:19.297Z,1002.19
2019-06-27T07:20:19.212Z,1002.12
2019-06-27T07:21:19.129Z,1002.11
2019-06-27T07:22:19.040Z,1002.12
2019-06-27T07:23:18.967Z,1002.12
2019-06-27T07:24:18.870Z,1002.05
2019-06-27T07:25:18.783Z,1002.07
2019-06-27T07:26:22.073Z,1002.08
2019-06-27T07:27:18.611Z,1002.07
2019-06-27T07:28:18.538Z,1002.08
2019-06-27T07:29:18.446Z,1002.04
2019-06-27T07:30:18.372Z,1002.04
2019-06-27T07:31:18.548Z,1002.09
2019-06-27T07:32:18.197Z,1002.01
2019-06-27T07:33:18.090Z,1002.04
2019-06-27T07:34:18.018Z,1002.09
2019-06-27T07:35:18.430Z,1002.11
2019-06-27T07:36:17.841Z,1002.05
2019-06-27T07:37:17.761Z,1002.07
2019-06-27T07:38:17.674Z,1002.03
2019-06-27T07:39:17.610Z,1002.04
2019-06-27T07:40:17.515Z,1002.02
2019-06-27T07:41:17.409Z,1002.09
2019-06-27T07:42:17.325Z,1002.06
2019-06-27T07:43:17.240Z,1002.02
2019-06-27T07:44:20.075Z,1002.05
2019-06-27T07:45:17.063Z,1002.00
2019-06-27T07:46:24.922Z,1001.99
2019-06-27T07:47:16.897Z,1001.96
2019-06-27T07:48:16.821Z,1001.97
2019-06-27T07:49:16.737Z,1001.95
2019-06-27T07:50:16.645Z,1002.02
2019-06-27T07:51:16.560Z,1001.98
2019-06-27T07:52:16.474Z,1002.00
2019-06-27T07:53:16.396Z,1002.05
2019-06-27T07:54:16.355Z,1002.00
2019-06-27T07:55:16.220Z,1001.93
2019-06-27T07:56:16.134Z,1001.94
2019-06-27T07:57:16.048Z,1001.92
2019-06-27T07:58:15.978Z,1002.04
2019-06-27T07:59:15.876Z,1002.09
2019-06-27T08:00:15.795Z,1002.07
2019-06-27T08:01:15.700Z,1002.03
2019-06-27T08:02:16.463Z,1002.12
2019-06-27T08:03:15.556Z,1002.10
2019-06-27T08:04:15.452Z,1002.08
2019-06-27T08:05:15.365Z,1002.17
2019-06-27T08:06:15.279Z,1002.14
2019-06-27T08:07:15.183Z,1002.14
2019-06-27T08:08:15.138Z,1002.11
2019-06-27T08:09:15.019Z,1002.15
2019-06-27T08:10:14.964Z,1002.12
2019-06-27T08:11:14.854Z,1002.13
2019-06-27T08:12:14.766Z,1002.12
2019-06-27T08:13:14.690Z,1002.17
2019-06-27T08:14:14.592Z,1002.07
2019-06-27T08:15:14.503Z,1002.05
2019-06-27T08:16:14.424Z,1002.05
2019-06-27T08:17:14.359Z,1002.06
2019-06-27T08:18:14.247Z,1002.01
2019-06-27T08:19:14.167Z,1002.02
2019-06-27T08:20:14.084Z,1001.99
2019-06-27T08:21:14.001Z,1002.02
2019-06-27T08:22:13.918Z,1002.00
2019-06-27T08:23:13.817Z,1001.97
2019-06-27T08:24:13.740Z,1002.01
2019-06-27T08:25:13.666Z,1001.98
2019-06-27T08:26:13.569Z,1002.06
2019-06-27T08:27:13.513Z,1001.95
2019-06-27T08:28:13.408Z,1001.98
2019-06-27T08:29:13.339Z,1001.96
2019-06-27T08:30:13.230Z,1002.02
2019-06-27T08:31:13.154Z,1002.06
2019-06-27T08:32:13.110Z,1002.07
2019-06-27T08:33:12.979Z,1002.03
2019-06-27T08:34:12.885Z,1001.98
2019-06-27T08:35:12.812Z,1002.02
2019-06-27T08:36:12.723Z,1002.03
2019-06-27T08:37:12.639Z,1002.07
2019-06-27T08:38:12.572Z,1001.98
2019-06-27T08:39:12.476Z,1002.06
2019-06-27T08:40:12.403Z,1002.01
2019-06-27T08:41:14.110Z,1001.99
2019-06-27T08:42:12.225Z,1001.97
2019-06-27T08:43:12.135Z,1001.96
2019-06-27T08:44:12.047Z,1002.14
2019-06-27T08:45:11.955Z,1002.10
2019-06-27T08:46:11.898Z,1002.07
2019-06-27T08:47:11.785Z,1001.97
2019-06-27T08:48:11.719Z,1001.97
2019-06-27T08:49:11.694Z,1002.01
2019-06-27T08:50:11.530Z,1001.99
2019-06-27T08:51:11.447Z,1002.02
2019-06-27T08:52:11.365Z,1001.98
2019-06-27T08:53:11.277Z,1001.95
2019-06-27T08:54:11.217Z,1001.95
2019-06-27T08:55:11.116Z,1001.93
2019-06-27T08:56:11.025Z,1002.01
2019-06-27T08:57:10.937Z,1002.07
2019-06-27T08:58:10.865Z,1001.97
2019-06-27T08:59:10.771Z,1001.96
2019-06-27T09:00:10.684Z,1002.08
2019-06-27T09:01:10.595Z,1002.11
2019-06-27T09:02:10.518Z,1002.04
2019-06-27T09:03:10.447Z,1002.04
2019-06-27T09:04:10.353Z,1002.13
2019-06-27T09:05:10.262Z,1002.05
2019-06-27T09:06:10.183Z,1002.04
2019-06-27T09:07:10.086Z,1002.00
2019-06-27T09:08:10.027Z,1001.99
2019-06-27T09:09:09.919Z,1001.97
2019-06-27T09:10:09.835Z,1002.01
2019-06-27T09:11:09.771Z,1002.06
2019-06-27T09:12:09.674Z,1002.05
2019-06-27T09:13:09.582Z,1002.03
2019-06-27T09:14:09.495Z,1002.05
2019-06-27T09:15:09.422Z,1002.04
2019-06-27T09:16:09.325Z,1002.10
2019-06-27T09:17:09.246Z,1001.99
2019-06-27T09:18:09.167Z,1002.01
2019-06-27T09:19:09.090Z,1002.00
2019-06-27T09:20:08.988Z,1001.99
2019-06-27T09:21:08.899Z,1001.97
2019-06-27T09:22:08.852Z,1001.98
2019-06-27T09:23:08.744Z,1001.99
2019-06-27T09:24:08.652Z,1001.98
2019-06-27T09:25:08.570Z,1002.07
2019-06-27T09:26:08.480Z,1002.05
2019-06-27T09:27:08.390Z,1001.97
2019-06-27T09:28:08.328Z,1001.93
2019-06-27T09:29:08.296Z,1001.99
2019-06-27T09:30:08.156Z,1001.97
2019-06-27T09:31:08.062Z,1002.03
2019-06-27T09:32:21.035Z,1002.00
2019-06-27T09:33:07.897Z,1001.93
2019-06-27T09:34:07.815Z,1001.92
2019-06-27T09:35:07.728Z,1001.93
2019-06-27T09:36:07.636Z,1001.94
2019-06-27T09:37:07.574Z,1001.93
2019-06-27T09:38:07.466Z,1001.97
2019-06-27T09:39:07.394Z,1001.93
2019-06-27T09:40:07.318Z,1001.96
2019-06-27T09:41:07.224Z,1001.93
2019-06-27T09:42:07.138Z,1001.94
2019-06-27T09:43:07.050Z,1001.87
2019-06-27T09:44:07.028Z,1002.07
2019-06-27T09:45:06.882Z,1002.00
2019-06-27T09:46:06.801Z,1001.95
2019-06-27T09:47:06.726Z,1002.00
2019-06-27T09:48:06.624Z,1002.03
2019-06-27T09:49:06.554Z,1001.94
2019-06-27T09:50:06.476Z,1001.91
2019-06-27T09:51:06.377Z,1001.90
2019-06-27T09:52:06.289Z,1001.86
2019-06-27T09:53:06.214Z,1001.95
2019-06-27T09:54:06.124Z,1001.95
2019-06-27T09:55:06.061Z,1001.93
2019-06-27T09:56:05.954Z,1001.89
2019-06-27T09:57:05.863Z,1001.92
2019-06-27T09:58:05.776Z,1001.91
2019-06-27T09:59:05.702Z,1001.90
2019-06-27T10:00:05.617Z,1001.89
2019-06-27T10:01:06.292Z,1001.90
2019-06-27T10:02:05.447Z,1001.88
2019-06-27T10:03:05.361Z,1001.87
2019-06-27T10:04:05.274Z,1001.90
2019-06-27T10:05:05.194Z,1001.95
2019-06-27T10:06:05.111Z,1001.92
2019-06-27T10:07:05.031Z,1001.90
2019-06-27T10:08:04.958Z,1001.89
2019-06-27T10:09:04.856Z,1001.88
2019-06-27T10:10:04.779Z,1001.91
2019-06-27T10:11:04.693Z,1001.82
2019-06-27T10:12:04.622Z,1001.86
2019-06-27T10:13:04.535Z,1001.88
2019-06-27T10:14:04.441Z,1001.97
2019-06-27T10:15:04.356Z,1001.88
2019-06-27T10:16:04.279Z,1001.95
2019-06-27T10:17:04.188Z,1001.87
2019-06-27T10:18:04.109Z,1001.88
2019-06-27T10:19:04.017Z,1001.85
2019-06-27T10:20:03.945Z,1001.86
2019-06-27T10:21:03.855Z,1001.87
2019-06-27T10:22:03.781Z,1001.83
2019-06-27T10:23:03.703Z,1001.91
2019-06-27T10:24:03.621Z,1001.96
2019-06-27T10:25:03.522Z,1001.88
2019-06-27T10:26:03.450Z,1001.90
2019-06-27T10:27:03.364Z,1001.98
2019-06-27T10:28:03.267Z,1001.98
2019-06-27T10:29:03.201Z,1001.91
2019-06-27T10:30:03.105Z,1001.92
2019-06-27T10:31:03.027Z,1001.93
2019-06-27T10:32:02.947Z,1001.93
2019-06-27T10:33:02.859Z,1001.90
2019-06-27T10:34:02.773Z,1001.94
2019-06-27T10:35:02.684Z,1001.91
2019-06-27T10:36:02.596Z,1001.93
2019-06-27T10:37:02.522Z,1001.98
2019-06-27T10:38:02.453Z,1002.02
2019-06-27T10:39:02.348Z,1002.03
2019-06-27T10:40:02.269Z,1001.91
2019-06-27T10:41:02.182Z,1001.89
2019-06-27T10:42:02.111Z,1001.91
2019-06-27T10:43:02.020Z,1001.88
2019-06-27T10:44:01.942Z,1002.04
2019-06-27T10:45:02.093Z,1002.02
2019-06-27T10:46:01.759Z,1001.97
2019-06-27T10:47:01.680Z,1001.95
2019-06-27T10:48:01.595Z,1001.87
2019-06-27T10:49:01.521Z,1001.86
2019-06-27T10:50:02.417Z,1001.96
2019-06-27T10:51:01.886Z,1001.92
2019-06-27T10:52:01.288Z,1001.91
2019-06-27T10:53:01.172Z,1002.04
2019-06-27T10:54:01.094Z,1001.90
2019-06-27T10:55:01.024Z,1001.96
2019-06-27T10:56:00.927Z,1001.88
2019-06-27T10:57:00.854Z,1001.91
2019-06-27T10:58:00.785Z,1001.83
2019-06-27T10:59:00.684Z,1001.86
2019-06-27T11:00:00.593Z,1001.85
2019-06-27T11:01:00.528Z,1001.90
2019-06-27T11:02:00.431Z,1001.85
2019-06-27T11:03:14.296Z,1001.80
2019-06-27T11:04:00.280Z,1001.76
2019-06-27T11:05:00.176Z,1001.87
2019-06-27T11:06:00.114Z,1001.85
2019-06-27T11:07:00.034Z,1001.79
2019-06-27T11:07:59.932Z,1001.78
2019-06-27T11:08:59.846Z,1001.76
2019-06-27T11:09:59.770Z,1001.76
2019-06-27T11:10:59.717Z,1001.75
2019-06-27T11:11:59.615Z,1001.70
2019-06-27T11:12:59.785Z,1001.72
2019-06-27T11:13:59.624Z,1001.77
2019-06-27T11:14:59.941Z,1001.66
2019-06-27T11:15:59.286Z,1001.62
2019-06-27T11:16:59.185Z,1001.65
2019-06-27T11:17:59.105Z,1001.67
2019-06-27T11:18:59.025Z,1001.65
2019-06-27T11:19:58.946Z,1001.58
2019-06-27T11:20:58.856Z,1001.64
2019-06-27T11:21:58.785Z,1001.66
2019-06-27T11:22:58.696Z,1001.67
2019-06-27T11:23:58.609Z,1001.61
2019-06-27T11:24:58.522Z,1001.67
2019-06-27T11:25:58.433Z,1001.64
2019-06-27T11:26:58.358Z,1001.65
2019-06-27T11:27:58.287Z,1001.67
2019-06-27T11:28:58.190Z,1001.67
2019-06-27T11:29:58.106Z,1001.67
2019-06-27T11:30:58.025Z,1001.65
2019-06-27T11:31:57.960Z,1001.64
2019-06-27T11:32:57.880Z,1001.62
2019-06-27T11:33:57.783Z,1001.66
2019-06-27T11:34:57.698Z,1001.59
2019-06-27T11:35:57.617Z,1001.60
2019-06-27T11:36:57.550Z,1001.65
2019-06-27T11:37:57.455Z,1001.57
2019-06-27T11:38:57.406Z,1001.58
2019-06-27T11:39:57.291Z,1001.60
2019-06-27T11:40:57.213Z,1001.62
2019-06-27T11:41:57.120Z,1001.67
2019-06-27T11:42:57.027Z,1001.59
2019-06-27T11:43:56.951Z,1001.58
2019-06-27T11:44:56.877Z,1001.56
2019-06-27T11:45:56.823Z,1001.60
2019-06-27T11:46:56.721Z,1001.64
2019-06-27T11:47:56.622Z,1001.59
2019-06-27T11:48:56.544Z,1001.62
2019-06-27T11:49:56.471Z,1001.62
2019-06-27T11:50:56.380Z,1001.56
2019-06-27T11:51:56.302Z,1001.61
2019-06-27T11:52:56.211Z,1001.52
2019-06-27T11:53:56.124Z,1001.57
2019-06-27T11:54:56.045Z,1001.56
2019-06-27T11:55:55.971Z,1001.52
2019-06-27T11:56:55.877Z,1001.53
2019-06-27T11:57:56.778Z,1001.62
2019-06-27T11:58:55.711Z,1001.61
2019-06-27T11:59:55.680Z,1001.51
2019-06-27T12:00:55.551Z,1001.50
2019-06-27T12:01:55.464Z,1001.49
2019-06-27T12:02:55.382Z,1001.54
2019-06-27T12:03:55.294Z,1001.44
2019-06-27T12:04:55.211Z,1001.48